Time;durP1;ratioP1;P1;durP2;ratioP2;P2;SDS_P1;SDS_P2;PMS_P1;PMS_P2;Temp;Humidity;BMP_temperature;BMP_pressure;BME280_temperature;BME280_humidity;BME280_pressure;Samples;Min_cycle;Max_cycle;Signal;HPM_P1;HPM_P2
2020/12/21 00:01:17;;;;;;;4.38;3.10;;;10.30;99.90;;;;;;5114621;28;20201;-79
2020/12/21 00:03:45;;;;;;;3.25;2.40;;;10.30;99.90;;;;;;5128298;27;20204;-77
2020/12/21 00:06:12;;;;;;;6.95;2.45;;;10.30;99.90;;;;;;5133356;27;20211;-76
2020/12/21 00:08:38;;;;;;;5.65;2.67;;;10.30;99.90;;;;;;5129241;27;20184;-77
2020/12/21 00:11:04;;;;;;;4.38;2.60;;;10.30;99.90;;;;;;5121422;27;20200;-77
2020/12/21 00:13:31;;;;;;;4.32;2.35;;;10.30;99.90;;;;;;5114586;28;20283;-76
2020/12/21 00:15:57;;;;;;;2.78;1.95;;;10.30;99.90;;;;;;5117829;27;20192;-76
2020/12/21 00:18:24;;;;;;;6.22;2.88;;;10.20;99.90;;;;;;5116912;27;20197;-76
2020/12/21 00:20:51;;;;;;;3.15;2.28;;;10.20;99.90;;;;;;5123763;27;20189;-76
2020/12/21 00:23:18;;;;;;;2.60;2.40;;;10.20;99.90;;;;;;5114433;28;20291;-77
2020/12/21 00:25:44;;;;;;;4.75;2.63;;;10.20;99.90;;;;;;5113404;28;20197;-78
2020/12/21 00:28:10;;;;;;;2.42;2.22;;;10.20;99.90;;;;;;5114475;28;20200;-78
2020/12/21 00:30:38;;;;;;;3.97;2.72;;;10.20;99.90;;;;;;5114225;28;20195;-78
2020/12/21 00:33:04;;;;;;;5.90;2.63;;;10.20;99.90;;;;;;5113506;28;20207;-77
2020/12/21 00:35:31;;;;;;;3.38;2.22;;;10.20;99.90;;;;;;5113689;27;20210;-77
2020/12/21 00:37:59;;;;;;;7.63;3.03;;;10.20;99.90;;;;;;5114047;28;20267;-77
2020/12/21 00:40:26;;;;;;;6.40;2.72;;;10.10;99.90;;;;;;5113487;28;20660;-77
2020/12/21 00:42:52;;;;;;;3.35;2.47;;;10.20;99.90;;;;;;5114332;28;20832;-77
2020/12/21 00:45:19;;;;;;;5.15;2.30;;;10.10;99.90;;;;;;5113874;28;20201;-77
2020/12/21 00:47:45;;;;;;;9.20;2.63;;;10.20;99.90;;;;;;5115057;27;20211;-80
2020/12/21 00:50:11;;;;;;;4.18;2.05;;;10.20;99.90;;;;;;5127529;27;20192;-80
2020/12/21 00:52:38;;;;;;;2.28;1.77;;;10.20;99.90;;;;;;5130730;27;20192;-81
2020/12/21 00:55:05;;;;;;;2.75;2.05;;;10.20;99.90;;;;;;5132807;27;20196;-78
2020/12/21 00:57:33;;;;;;;6.28;2.28;;;10.10;99.90;;;;;;5131403;27;20203;-78
2020/12/21 00:59:59;;;;;;;2.13;1.90;;;10.10;99.90;;;;;;5113212;28;20216;-78
2020/12/21 01:02:26;;;;;;;4.55;2.90;;;10.10;99.90;;;;;;5113202;28;20200;-77
2020/12/21 01:04:52;;;;;;;3.75;2.90;;;10.10;99.90;;;;;;5112855;28;20220;-78
2020/12/21 01:07:18;;;;;;;3.03;2.17;;;10.10;99.90;;;;;;5113193;28;20193;-77
2020/12/21 01:09:46;;;;;;;2.90;2.20;;;10.10;99.90;;;;;;5113682;28;20199;-78
2020/12/21 01:12:14;;;;;;;2.83;2.47;;;10.10;99.90;;;;;;5113688;28;20200;-77
2020/12/21 01:14:40;;;;;;;4.93;2.80;;;10.10;99.90;;;;;;5113199;27;20192;-79
2020/12/21 01:17:07;;;;;;;5.15;2.15;;;10.00;99.90;;;;;;5117275;27;20225;-80
2020/12/21 01:19:33;;;;;;;3.20;2.50;;;10.00;99.90;;;;;;5133168;27;20211;-81
2020/12/21 01:21:59;;;;;;;4.47;2.60;;;10.00;99.90;;;;;;5118570;27;20212;-79
2020/12/21 01:24:26;;;;;;;3.72;2.30;;;10.00;99.90;;;;;;5113135;28;20193;-80
2020/12/21 01:26:52;;;;;;;3.90;2.53;;;10.00;99.90;;;;;;5113555;27;20541;-79
2020/12/21 01:29:19;;;;;;;4.97;2.20;;;10.10;99.90;;;;;;5121764;27;20196;-79
2020/12/21 01:31:45;;;;;;;3.00;2.60;;;10.00;99.90;;;;;;5114331;27;20204;-79
2020/12/21 01:34:13;;;;;;;2.97;2.20;;;10.00;99.90;;;;;;5114195;27;20200;-79
2020/12/21 01:36:40;;;;;;;5.10;3.20;;;10.00;99.90;;;;;;5115716;27;20204;-79
2020/12/21 01:39:06;;;;;;;3.30;2.13;;;10.00;99.90;;;;;;5129766;27;20223;-78
2020/12/21 01:41:33;;;;;;;3.65;2.20;;;10.00;99.90;;;;;;5120290;27;20257;-78
2020/12/21 01:43:59;;;;;;;4.97;2.47;;;9.90;99.90;;;;;;5113131;28;20211;-78
2020/12/21 01:46:27;;;;;;;5.03;3.10;;;9.90;99.90;;;;;;5126246;27;20192;-78
2020/12/21 01:48:53;;;;;;;5.63;2.42;;;9.90;99.90;;;;;;5133055;27;20221;-78
2020/12/21 01:51:22;;;;;;;5.05;2.42;;;10.00;99.90;;;;;;5123547;27;20196;-77
2020/12/21 01:53:49;;;;;;;6.15;2.75;;;10.00;99.90;;;;;;5133219;27;20200;-79
2020/12/21 01:56:17;;;;;;;3.60;2.38;;;9.90;99.90;;;;;;5124212;27;20571;-78
2020/12/21 01:58:44;;;;;;;4.20;2.45;;;9.90;99.90;;;;;;5132638;27;20207;-79
2020/12/21 02:01:12;;;;;;;6.00;2.55;;;9.90;99.90;;;;;;5113514;27;20196;-77
2020/12/21 02:03:40;;;;;;;3.92;2.80;;;9.90;99.90;;;;;;5130213;27;20200;-76
2020/12/21 02:06:07;;;;;;;4.45;2.78;;;9.90;99.90;;;;;;5123977;27;20621;-77
2020/12/21 02:08:33;;;;;;;4.60;3.15;;;9.90;99.90;;;;;;5112731;28;20212;-76
2020/12/21 02:11:00;;;;;;;8.00;2.90;;;9.90;99.90;;;;;;5120289;27;20184;-78
2020/12/21 02:13:26;;;;;;;4.07;2.60;;;9.90;99.90;;;;;;5115678;27;20200;-78
2020/12/21 02:15:53;;;;;;;5.13;2.80;;;9.90;99.90;;;;;;5119953;27;20204;-80
2020/12/21 02:18:19;;;;;;;5.47;3.00;;;9.80;99.90;;;;;;5125851;27;20203;-79
2020/12/21 02:20:46;;;;;;;5.78;3.00;;;9.80;99.90;;;;;;5119831;27;20216;-79
2020/12/21 02:23:12;;;;;;;6.38;2.70;;;9.80;99.90;;;;;;5112232;28;20201;-79
2020/12/21 02:25:39;;;;;;;6.03;3.60;;;9.70;99.90;;;;;;5120398;28;20276;-79
2020/12/21 02:28:05;;;;;;;8.20;2.83;;;9.80;99.90;;;;;;5124938;27;20192;-79
2020/12/21 02:30:31;;;;;;;6.45;3.35;;;9.80;99.90;;;;;;5118356;27;20200;-78
2020/12/21 02:32:57;;;;;;;3.53;2.85;;;9.80;99.90;;;;;;5129286;27;20188;-78
2020/12/21 02:35:24;;;;;;;3.67;2.38;;;9.80;99.90;;;;;;5125860;27;20196;-79
2020/12/21 02:37:51;;;;;;;5.57;2.85;;;9.80;99.90;;;;;;5136369;27;20194;-79
2020/12/21 02:40:17;;;;;;;5.18;2.75;;;9.80;99.90;;;;;;5120111;27;20224;-78
2020/12/21 02:42:43;;;;;;;4.72;3.15;;;9.70;99.90;;;;;;5118215;27;20203;-78
2020/12/21 02:45:10;;;;;;;4.80;2.67;;;9.80;99.90;;;;;;5117287;27;20208;-79
2020/12/21 02:47:37;;;;;;;5.88;3.33;;;9.80;99.90;;;;;;5121098;27;20196;-77
2020/12/21 02:50:03;;;;;;;5.07;2.90;;;9.80;99.90;;;;;;5135025;27;20257;-78
2020/12/21 02:52:31;;;;;;;5.95;2.55;;;9.70;99.90;;;;;;5136201;27;20185;-77
2020/12/21 02:54:58;;;;;;;4.00;2.50;;;9.70;99.90;;;;;;5118735;27;20269;-77
2020/12/21 02:57:24;;;;;;;2.63;2.13;;;9.70;99.90;;;;;;5126669;27;20199;-78
2020/12/21 02:59:50;;;;;;;7.70;2.63;;;9.70;99.90;;;;;;5128041;27;20201;-77
2020/12/21 03:02:17;;;;;;;4.80;2.33;;;9.70;99.90;;;;;;5123215;27;20189;-77
2020/12/21 03:04:43;;;;;;;3.45;2.30;;;9.70;99.90;;;;;;5115838;27;20258;-77
2020/12/21 03:07:09;;;;;;;3.60;2.40;;;9.70;99.90;;;;;;5126059;27;20195;-77
2020/12/21 03:09:36;;;;;;;3.55;2.78;;;9.70;99.90;;;;;;5136304;27;20188;-79
2020/12/21 03:12:03;;;;;;;3.47;2.30;;;9.70;99.90;;;;;;5127006;27;20289;-80
2020/12/21 03:14:29;;;;;;;4.43;2.60;;;9.70;99.90;;;;;;5115838;27;20231;-80
2020/12/21 03:16:55;;;;;;;4.57;2.60;;;9.70;99.90;;;;;;5126422;27;20237;-79
2020/12/21 03:19:22;;;;;;;4.63;2.92;;;9.70;99.90;;;;;;5120174;27;20216;-78
2020/12/21 03:21:48;;;;;;;4.07;2.88;;;9.70;99.90;;;;;;5136236;27;20210;-79
2020/12/21 03:24:14;;;;;;;5.80;2.53;;;9.70;99.90;;;;;;5136401;27;20259;-81
2020/12/21 03:26:40;;;;;;;5.78;2.65;;;9.70;99.90;;;;;;5118163;27;20193;-80
2020/12/21 03:29:07;;;;;;;7.28;3.53;;;9.70;99.90;;;;;;5117876;27;20189;-79
2020/12/21 03:31:34;;;;;;;5.15;3.10;;;9.70;99.90;;;;;;5133745;27;20540;-80
2020/12/21 03:34:00;;;;;;;3.58;2.75;;;9.70;99.90;;;;;;5134521;27;20237;-80
2020/12/21 03:36:26;;;;;;;4.20;2.33;;;9.70;99.90;;;;;;5135264;27;20207;-80
2020/12/21 03:38:52;;;;;;;4.55;2.60;;;9.70;99.90;;;;;;5118575;27;20216;-77
2020/12/21 03:41:19;;;;;;;3.25;1.90;;;9.70;99.90;;;;;;5115549;27;20552;-81
2020/12/21 03:43:45;;;;;;;3.75;2.33;;;9.60;99.90;;;;;;5115087;28;20204;-80
2020/12/21 03:46:12;;;;;;;6.53;2.80;;;9.60;99.90;;;;;;5119160;27;20192;-78
2020/12/21 03:48:38;;;;;;;4.97;2.55;;;9.60;99.90;;;;;;5116360;27;20693;-78
2020/12/21 03:51:05;;;;;;;3.03;2.30;;;9.60;99.90;;;;;;5120890;27;20203;-76
2020/12/21 03:53:31;;;;;;;3.65;2.75;;;9.60;99.90;;;;;;5130044;27;20188;-77
2020/12/21 03:55:57;;;;;;;3.92;2.25;;;9.60;99.90;;;;;;5135430;27;20196;-78
2020/12/21 03:58:24;;;;;;;5.60;2.72;;;9.60;99.90;;;;;;5119771;27;20215;-78
2020/12/21 04:00:51;;;;;;;3.70;2.63;;;9.60;99.90;;;;;;5133796;27;20707;-78
2020/12/21 04:03:18;;;;;;;4.05;2.72;;;9.50;99.90;;;;;;5114817;27;20216;-78
2020/12/21 04:05:44;;;;;;;3.30;2.50;;;9.50;99.90;;;;;;5114572;27;20651;-78
2020/12/21 04:08:10;;;;;;;4.15;1.90;;;9.50;99.90;;;;;;5115251;28;20204;-79
2020/12/21 04:10:38;;;;;;;3.40;2.25;;;9.50;99.90;;;;;;5115861;27;20661;-79
2020/12/21 04:13:04;;;;;;;6.00;2.30;;;9.50;99.90;;;;;;5115723;27;20285;-79
2020/12/21 04:15:30;;;;;;;4.55;2.85;;;9.50;99.90;;;;;;5114624;27;20203;-80
2020/12/21 04:17:56;;;;;;;3.60;2.40;;;9.50;99.90;;;;;;5116776;27;20192;-79
2020/12/21 04:20:23;;;;;;;5.38;1.75;;;9.50;99.90;;;;;;5114762;28;20216;-79
2020/12/21 04:22:50;;;;;;;2.67;2.13;;;9.50;99.90;;;;;;5114794;27;20204;-79
2020/12/21 04:25:16;;;;;;;2.90;1.73;;;9.50;99.90;;;;;;5118376;27;20197;-79
2020/12/21 04:27:42;;;;;;;2.38;1.90;;;9.50;99.90;;;;;;5115306;27;20201;-79
2020/12/21 04:30:08;;;;;;;3.22;2.10;;;9.50;99.90;;;;;;5124885;27;20722;-79
2020/12/21 04:32:35;;;;;;;3.88;2.55;;;9.50;99.90;;;;;;5127988;27;20189;-79
2020/12/21 04:35:01;;;;;;;5.45;2.00;;;9.50;99.90;;;;;;5121790;27;20196;-79
2020/12/21 04:37:28;;;;;;;3.10;1.80;;;9.40;99.90;;;;;;5122831;27;20199;-79
2020/12/21 04:39:54;;;;;;;3.53;1.85;;;9.40;99.90;;;;;;5115080;27;20219;-79
2020/12/21 04:42:24;;;;;;;4.40;1.63;;;9.40;99.90;;;;;;5124705;27;20523;-77
2020/12/21 04:44:51;;;;;;;2.80;2.20;;;9.50;99.90;;;;;;5113284;27;20196;-77
2020/12/21 04:47:17;;;;;;;3.03;1.88;;;9.50;99.90;;;;;;5114207;27;20261;-77
2020/12/21 04:49:45;;;;;;;2.15;1.48;;;9.40;99.90;;;;;;5114424;27;20199;-77
2020/12/21 04:52:13;;;;;;;2.15;1.50;;;9.50;99.90;;;;;;5115931;27;20193;-78
2020/12/21 04:54:40;;;;;;;6.78;1.70;;;9.40;99.90;;;;;;5133461;27;20253;-78
2020/12/21 04:57:07;;;;;;;3.03;2.05;;;9.40;99.90;;;;;;5131333;27;20200;-78
2020/12/21 04:59:33;;;;;;;3.35;2.00;;;9.40;99.90;;;;;;5112628;28;20209;-77
2020/12/21 05:02:03;;;;;;;3.13;2.08;;;9.40;99.90;;;;;;5112715;28;20189;-77
2020/12/21 05:04:30;;;;;;;3.00;1.70;;;9.40;99.90;;;;;;5112949;28;20707;-78
2020/12/21 05:06:56;;;;;;;3.45;1.95;;;9.40;99.90;;;;;;5113012;27;20878;-78
2020/12/21 05:09:24;;;;;;;4.50;2.45;;;9.40;99.90;;;;;;5113798;28;20261;-80
2020/12/21 05:11:55;;;;;;;2.20;2.00;;;9.40;99.90;;;;;;5133260;27;20505;-80
2020/12/21 05:14:31;;;;;;;2.45;2.15;;;9.40;99.90;;;;;;5134278;27;20200;-79
2020/12/21 05:17:10;;;;;;;3.42;1.67;;;9.40;99.90;;;;;;5133070;27;20222;-80
2020/12/21 05:19:36;;;;;;;3.13;1.67;;;9.30;99.90;;;;;;5118210;27;20683;-78
2020/12/21 05:22:02;;;;;;;4.35;2.08;;;9.30;99.90;;;;;;5128547;27;20207;-78
2020/12/21 05:24:29;;;;;;;2.83;2.03;;;9.30;99.90;;;;;;5113492;28;20205;-78
2020/12/21 05:26:56;;;;;;;3.42;1.80;;;9.30;99.90;;;;;;5113152;28;20193;-79
2020/12/21 05:29:26;;;;;;;3.50;2.03;;;9.30;99.90;;;;;;5117536;27;20196;-77
2020/12/21 05:31:52;;;;;;;2.58;1.70;;;9.30;99.90;;;;;;5113432;27;20216;-79
2020/12/21 05:34:28;;;;;;;2.90;1.58;;;9.30;99.90;;;;;;5124255;27;20192;-77
2020/12/21 05:36:54;;;;;;;4.68;1.90;;;9.30;99.90;;;;;;5128260;27;20195;-77
2020/12/21 05:39:21;;;;;;;3.15;1.65;;;9.30;99.90;;;;;;5123661;27;20215;-78
2020/12/21 05:41:47;;;;;;;3.03;1.95;;;9.30;99.90;;;;;;5122983;27;20184;-78
2020/12/21 05:44:14;;;;;;;3.25;1.70;;;9.20;99.90;;;;;;5130583;27;20188;-78
2020/12/21 05:46:41;;;;;;;2.83;1.70;;;9.20;99.90;;;;;;5112875;27;20207;-78
2020/12/21 05:49:07;;;;;;;3.85;1.73;;;9.20;99.90;;;;;;5114375;27;20184;-78
2020/12/21 05:51:37;;;;;;;2.42;1.63;;;9.20;99.90;;;;;;5113116;28;20249;-78
2020/12/21 05:54:05;;;;;;;3.83;1.65;;;9.20;99.90;;;;;;5112660;28;20192;-79
2020/12/21 05:56:36;;;;;;;6.28;1.75;;;9.20;99.90;;;;;;5116051;27;20199;-77
2020/12/21 05:59:03;;;;;;;3.40;1.92;;;9.20;99.90;;;;;;5130721;27;20188;-77
2020/12/21 06:01:30;;;;;;;2.47;1.40;;;9.20;99.90;;;;;;5132525;27;20200;-77
2020/12/21 06:04:00;;;;;;;2.58;1.85;;;9.20;99.90;;;;;;5112634;27;20242;-77
2020/12/21 06:06:28;;;;;;;5.45;2.05;;;9.20;99.90;;;;;;5115166;28;20211;-78
2020/12/21 06:08:57;;;;;;;1.52;1.42;;;9.20;99.90;;;;;;5112466;28;20204;-77
2020/12/21 06:11:24;;;;;;;4.32;1.80;;;9.20;99.90;;;;;;5113616;27;20188;-77
2020/12/21 06:13:56;;;;;;;2.45;1.80;;;9.20;99.90;;;;;;5120149;27;20199;-77
2020/12/21 06:16:24;;;;;;;2.45;1.85;;;9.20;99.90;;;;;;5122834;27;20234;-77
2020/12/21 06:19:03;;;;;;;3.90;2.10;;;9.20;99.90;;;;;;5112078;28;20242;-77
2020/12/21 06:21:30;;;;;;;2.67;1.30;;;9.20;99.90;;;;;;5112227;28;20185;-80
2020/12/21 06:23:57;;;;;;;2.00;1.63;;;9.10;99.90;;;;;;5111543;28;20197;-79
2020/12/21 06:26:34;;;;;;;2.75;1.80;;;9.10;99.90;;;;;;5111938;28;20197;-80
2020/12/21 06:29:03;;;;;;;2.63;1.83;;;9.10;99.90;;;;;;5111837;28;20193;-80
2020/12/21 06:31:40;;;;;;;3.05;1.80;;;9.10;99.90;;;;;;5112205;28;20633;-81
2020/12/21 06:34:09;;;;;;;4.15;1.85;;;9.00;99.90;;;;;;5112728;27;20197;-80
2020/12/21 06:36:35;;;;;;;2.70;2.30;;;9.00;99.90;;;;;;5112863;28;20200;-80
2020/12/21 06:39:02;;;;;;;3.75;2.25;;;9.00;99.90;;;;;;5112050;28;20196;-80
2020/12/21 06:41:28;;;;;;;2.75;1.70;;;9.00;99.90;;;;;;5123201;28;20199;-81
2020/12/21 06:44:00;;;;;;;1.63;1.23;;;9.00;99.90;;;;;;5131252;27;20222;-80
2020/12/21 06:46:27;;;;;;;4.07;1.50;;;9.00;99.90;;;;;;5125424;27;20211;-81
2020/12/21 06:49:09;;;;;;;2.90;1.55;;;9.00;99.90;;;;;;5122892;28;20197;-81
2020/12/21 06:51:38;;;;;;;3.15;1.55;;;9.00;99.90;;;;;;5112243;28;20200;-80
2020/12/21 06:54:05;;;;;;;1.95;1.75;;;9.00;99.90;;;;;;5112218;28;20215;-80
2020/12/21 06:56:32;;;;;;;1.63;1.45;;;9.00;99.90;;;;;;5113479;28;20204;-80
2020/12/21 06:59:00;;;;;;;2.60;1.55;;;9.00;99.90;;;;;;5112111;28;20524;-79
2020/12/21 07:01:28;;;;;;;2.60;1.60;;;9.00;99.90;;;;;;5118822;28;20245;-80
2020/12/21 07:03:55;;;;;;;3.80;1.80;;;9.00;99.90;;;;;;5116691;27;20193;-78
2020/12/21 07:06:23;;;;;;;2.50;1.38;;;9.00;99.90;;;;;;5119071;28;20192;-79
2020/12/21 07:08:49;;;;;;;3.25;1.40;;;9.00;99.90;;;;;;5128379;27;20195;-77
2020/12/21 07:11:17;;;;;;;2.38;1.50;;;8.90;99.90;;;;;;5115517;28;20195;-77
2020/12/21 07:13:44;;;;;;;2.28;1.50;;;8.90;99.90;;;;;;5111720;28;20200;-77
2020/12/21 07:16:11;;;;;;;3.83;1.25;;;8.90;99.90;;;;;;5110310;28;20197;-76
2020/12/21 07:18:37;;;;;;;1.48;1.27;;;8.90;99.90;;;;;;5128380;27;20257;-78
2020/12/21 07:21:07;;;;;;;2.28;1.40;;;8.90;99.90;;;;;;5127743;27;20224;-78
2020/12/21 07:23:34;;;;;;;1.95;1.63;;;8.80;99.90;;;;;;5115436;28;20205;-79
2020/12/21 07:26:01;;;;;;;2.40;1.55;;;8.80;99.90;;;;;;5114725;28;20185;-75
2020/12/21 07:28:27;;;;;;;1.50;1.40;;;8.80;99.90;;;;;;5122317;27;20203;-78
2020/12/21 07:31:04;;;;;;;3.25;1.50;;;8.80;99.90;;;;;;5134943;27;20180;-78
2020/12/21 07:33:30;;;;;;;1.88;1.35;;;8.70;99.90;;;;;;5115608;28;20290;-79
2020/12/21 07:35:57;;;;;;;3.25;1.40;;;8.80;99.90;;;;;;5116008;28;20201;-78
2020/12/21 07:38:24;;;;;;;4.15;1.65;;;8.70;99.90;;;;;;5115669;28;20205;-78
2020/12/21 07:40:53;;;;;;;4.30;1.30;;;8.70;99.90;;;;;;5114882;28;20235;-79
2020/12/21 07:43:27;;;;;;;2.00;1.40;;;8.70;99.90;;;;;;5121723;27;20193;-79
2020/12/21 07:46:01;;;;;;;2.30;1.40;;;8.70;99.90;;;;;;5133897;27;20249;-79
2020/12/21 07:48:29;;;;;;;3.38;1.58;;;8.70;99.90;;;;;;5136169;27;20179;-79
2020/12/21 07:50:56;;;;;;;2.33;1.40;;;8.70;99.90;;;;;;5134670;27;20188;-79
2020/12/21 07:53:23;;;;;;;4.00;1.50;;;8.80;99.90;;;;;;5124695;27;20189;-79
2020/12/21 07:55:57;;;;;;;1.85;1.40;;;8.80;99.90;;;;;;5123931;27;20211;-78
2020/12/21 07:58:24;;;;;;;4.82;1.20;;;8.70;99.90;;;;;;5128359;27;20196;-80
2020/12/21 08:00:58;;;;;;;2.25;1.58;;;8.70;99.90;;;;;;5114787;28;20216;-81
2020/12/21 08:03:26;;;;;;;2.33;1.60;;;8.70;99.90;;;;;;5117004;27;20193;-80
2020/12/21 08:06:10;;;;;;;2.47;1.40;;;8.60;99.90;;;;;;5114886;28;20193;-80
2020/12/21 08:08:36;;;;;;;1.75;1.25;;;8.60;99.90;;;;;;5114901;27;20301;-80
2020/12/21 08:11:04;;;;;;;1.40;1.13;;;8.70;99.90;;;;;;5115240;27;20197;-81
2020/12/21 08:13:30;;;;;;;1.98;1.48;;;8.60;99.90;;;;;;5115032;27;20250;-79
2020/12/21 08:16:07;;;;;;;4.15;1.23;;;8.50;99.90;;;;;;5120117;27;20189;-78
2020/12/21 08:18:34;;;;;;;2.50;1.50;;;8.50;99.90;;;;;;5128717;27;20211;-78
2020/12/21 08:21:00;;;;;;;2.85;1.45;;;8.50;99.90;;;;;;5130412;27;20204;-78
2020/12/21 08:23:28;;;;;;;4.55;1.77;;;8.50;99.90;;;;;;5135148;27;20206;-80
2020/12/21 08:25:55;;;;;;;1.70;1.33;;;8.50;99.90;;;;;;5134129;27;20199;-80
2020/12/21 08:28:35;;;;;;;3.97;1.67;;;8.50;99.90;;;;;;5113773;28;20214;-80
2020/12/21 08:31:10;;;;;;;5.13;1.58;;;8.50;99.90;;;;;;5114738;27;20196;-79
2020/12/21 08:33:38;;;;;;;3.00;1.40;;;8.50;99.90;;;;;;5115590;27;20196;-77
2020/12/21 08:36:17;;;;;;;2.00;1.70;;;8.60;99.90;;;;;;5114318;28;20204;-77
2020/12/21 08:38:43;;;;;;;5.40;1.52;;;8.60;99.90;;;;;;5114347;28;20740;-79
2020/12/21 08:41:10;;;;;;;1.73;1.45;;;8.50;99.90;;;;;;5113845;27;20232;-78
2020/12/21 08:43:37;;;;;;;5.72;1.70;;;8.50;99.90;;;;;;5123538;27;20188;-78
2020/12/21 08:46:06;;;;;;;4.35;1.33;;;8.50;99.90;;;;;;5126765;27;20276;-80
2020/12/21 08:48:33;;;;;;;2.40;1.50;;;8.50;99.90;;;;;;5115633;27;20193;-82
2020/12/21 08:50:59;;;;;;;3.50;1.50;;;8.50;99.90;;;;;;5114269;28;20193;-80
2020/12/21 08:53:25;;;;;;;3.63;1.63;;;8.50;99.90;;;;;;5113802;27;20197;-79
2020/12/21 08:55:51;;;;;;;3.70;1.38;;;8.50;99.90;;;;;;5114158;27;20204;-79
2020/12/21 08:58:18;;;;;;;1.80;1.33;;;8.50;99.90;;;;;;5121793;27;20196;-79
2020/12/21 09:00:45;;;;;;;3.65;1.83;;;8.60;99.90;;;;;;5134083;27;20663;-80
2020/12/21 09:03:11;;;;;;;1.40;1.30;;;8.60;99.90;;;;;;5132654;27;20192;-80
2020/12/21 09:05:37;;;;;;;2.28;1.55;;;8.50;99.90;;;;;;5128104;27;20193;-80
2020/12/21 09:08:04;;;;;;;2.05;1.40;;;8.60;99.90;;;;;;5125991;27;20195;-81
2020/12/21 09:10:30;;;;;;;1.42;1.33;;;8.60;99.90;;;;;;5125879;27;20184;-81
2020/12/21 09:12:56;;;;;;;1.75;1.50;;;8.60;99.90;;;;;;5119648;27;20237;-80
2020/12/21 09:15:23;;;;;;;3.35;1.60;;;8.60;99.90;;;;;;5127604;27;20192;-81
2020/12/21 09:17:50;;;;;;;1.75;1.45;;;8.60;99.90;;;;;;5123393;27;20197;-81
2020/12/21 09:20:16;;;;;;;2.45;1.30;;;8.60;99.90;;;;;;5113417;28;20204;-81
2020/12/21 09:22:42;;;;;;;1.70;1.42;;;8.60;99.90;;;;;;5113487;28;20439;-80
2020/12/21 09:25:09;;;;;;;2.93;1.50;;;8.60;99.90;;;;;;5120844;27;20451;-80
2020/12/21 09:27:35;;;;;;;2.60;1.75;;;8.50;99.90;;;;;;5125844;27;20459;-81
2020/12/21 09:30:01;;;;;;;4.65;1.60;;;8.60;99.90;;;;;;5131279;27;20188;-81
2020/12/21 09:32:27;;;;;;;6.25;2.13;;;8.60;99.90;;;;;;5124561;27;20208;-80
2020/12/21 09:34:54;;;;;;;3.42;1.50;;;8.60;99.90;;;;;;5119149;27;20207;-81
2020/12/21 09:37:21;;;;;;;3.28;1.95;;;8.60;99.90;;;;;;5122422;27;20192;-81
2020/12/21 09:39:47;;;;;;;1.65;1.50;;;8.60;99.90;;;;;;5117000;27;20788;-80
2020/12/21 09:42:14;;;;;;;2.83;1.77;;;8.60;99.90;;;;;;5118156;27;20192;-81
2020/12/21 09:44:40;;;;;;;8.57;1.80;;;8.50;99.90;;;;;;5112617;28;20197;-81
2020/12/21 09:47:06;;;;;;;3.95;1.27;;;8.50;99.90;;;;;;5128084;27;20524;-82
2020/12/21 09:49:33;;;;;;;2.70;1.20;;;8.60;99.90;;;;;;5133747;27;20196;-82
2020/12/21 09:52:00;;;;;;;3.88;1.30;;;8.60;99.90;;;;;;5123927;27;20197;-81
2020/12/21 09:54:26;;;;;;;2.30;1.30;;;8.60;99.90;;;;;;5112821;28;20201;-81
2020/12/21 09:56:52;;;;;;;3.22;1.80;;;8.60;99.90;;;;;;5117331;27;20196;-80
2020/12/21 09:59:19;;;;;;;3.53;1.55;;;8.70;99.90;;;;;;5116652;27;20200;-80
2020/12/21 10:01:45;;;;;;;3.20;1.50;;;8.70;99.90;;;;;;5125967;27;20206;-79
2020/12/21 10:04:11;;;;;;;2.33;1.75;;;8.70;99.90;;;;;;5128235;27;20197;-82
2020/12/21 10:06:37;;;;;;;1.80;1.40;;;8.80;99.90;;;;;;5129668;27;20191;-80
2020/12/21 10:09:05;;;;;;;5.88;1.65;;;8.80;99.90;;;;;;5133415;27;20208;-80
2020/12/21 10:11:31;;;;;;;2.20;1.48;;;8.80;99.90;;;;;;5133029;27;20221;-79
2020/12/21 10:13:57;;;;;;;3.03;1.50;;;8.70;99.90;;;;;;5131831;27;20513;-79
2020/12/21 10:16:24;;;;;;;7.53;1.80;;;8.70;99.90;;;;;;5122544;27;20197;-80
2020/12/21 10:18:50;;;;;;;6.03;1.38;;;8.70;99.90;;;;;;5112539;28;20544;-79
2020/12/21 10:21:16;;;;;;;5.68;1.77;;;8.80;99.90;;;;;;5123702;27;20212;-76
2020/12/21 10:23:42;;;;;;;2.47;2.22;;;8.80;99.90;;;;;;5112441;28;20566;-77
2020/12/21 10:26:10;;;;;;;2.30;1.70;;;8.90;99.90;;;;;;5112403;28;20528;-77
2020/12/21 10:28:36;;;;;;;2.67;1.55;;;8.80;99.90;;;;;;5115046;28;20188;-83
2020/12/21 10:31:02;;;;;;;2.13;1.42;;;8.90;99.90;;;;;;5111962;28;20531;-81
2020/12/21 10:33:28;;;;;;;2.72;2.08;;;8.80;99.90;;;;;;5112666;28;20197;-82
2020/12/21 10:35:55;;;;;;;2.10;1.45;;;8.90;99.90;;;;;;5112492;28;20548;-82
2020/12/21 10:38:21;;;;;;;3.08;1.38;;;8.90;99.90;;;;;;5113436;28;20189;-82
2020/12/21 10:40:47;;;;;;;3.72;1.83;;;8.90;99.90;;;;;;5111227;28;20224;-81
2020/12/21 10:43:14;;;;;;;2.28;1.10;;;8.90;99.90;;;;;;5125951;28;20195;-82
2020/12/21 10:45:41;;;;;;;3.92;2.30;;;8.90;99.90;;;;;;5128804;27;20188;-82
2020/12/21 10:48:07;;;;;;;2.50;1.90;;;8.90;99.90;;;;;;5111677;28;20201;-82
2020/12/21 10:50:33;;;;;;;2.15;1.35;;;8.90;99.90;;;;;;5111548;28;20269;-82
2020/12/21 10:53:00;;;;;;;3.90;2.03;;;8.90;99.90;;;;;;5113177;28;20193;-82
2020/12/21 10:55:26;;;;;;;3.08;1.75;;;8.90;99.90;;;;;;5115145;28;20188;-82
2020/12/21 10:57:52;;;;;;;3.08;1.58;;;8.90;99.90;;;;;;5130544;28;20711;-82
2020/12/21 11:00:19;;;;;;;2.75;1.70;;;8.90;99.90;;;;;;5125296;27;20216;-82
2020/12/21 11:02:46;;;;;;;9.40;2.22;;;8.90;99.90;;;;;;5125180;28;20196;-82
2020/12/21 11:05:12;;;;;;;1.75;1.58;;;9.00;99.90;;;;;;5132767;27;20196;-84
2020/12/21 11:07:38;;;;;;;4.53;1.50;;;9.00;99.90;;;;;;5114660;28;20193;-83
2020/12/21 11:10:08;;;;;;;5.00;1.95;;;9.10;99.90;;;;;;5116007;28;20265;-82
2020/12/21 11:12:35;;;;;;;4.15;1.58;;;9.10;99.90;;;;;;5122817;28;20629;-83
2020/12/21 11:15:01;;;;;;;3.13;2.25;;;9.10;99.90;;;;;;5114528;28;20196;-83
2020/12/21 11:17:28;;;;;;;3.90;1.48;;;9.10;99.90;;;;;;5114734;28;20192;-83
2020/12/21 11:19:54;;;;;;;3.35;1.42;;;9.10;99.90;;;;;;5114533;28;20223;-83
2020/12/21 11:22:21;;;;;;;2.38;2.17;;;9.10;99.90;;;;;;5126015;28;20614;-83
2020/12/21 11:24:48;;;;;;;3.45;2.00;;;9.10;99.90;;;;;;5135155;27;20196;-83
2020/12/21 11:27:16;;;;;;;6.07;2.00;;;9.20;99.90;;;;;;5129722;27;20204;-83
2020/12/21 11:29:43;;;;;;;3.40;1.95;;;9.20;99.90;;;;;;5117991;28;20197;-83
2020/12/21 11:32:09;;;;;;;6.97;2.15;;;9.20;99.90;;;;;;5114528;28;20193;-83
2020/12/21 11:34:36;;;;;;;2.50;2.00;;;9.20;99.90;;;;;;5114474;28;20208;-85
2020/12/21 11:37:02;;;;;;;4.13;1.70;;;9.10;99.90;;;;;;5114987;28;20226;-84
2020/12/21 11:39:29;;;;;;;1.88;1.48;;;9.10;99.90;;;;;;5078339;27;1055275;-83
2020/12/21 11:41:55;;;;;;;4.20;1.70;;;9.20;99.90;;;;;;5115698;27;20205;-81
2020/12/21 11:44:21;;;;;;;6.10;1.80;;;9.20;99.90;;;;;;5123290;27;20658;-75
2020/12/21 11:46:47;;;;;;;3.70;2.10;;;9.10;99.90;;;;;;5131435;27;20283;-75
2020/12/21 11:49:14;;;;;;;3.97;1.60;;;9.10;99.90;;;;;;5129523;27;20197;-76
2020/12/21 11:51:41;;;;;;;4.57;1.70;;;9.10;99.90;;;;;;5114777;27;20201;-77
2020/12/21 11:54:07;;;;;;;4.40;2.08;;;9.10;99.90;;;;;;5114720;28;20205;-79
2020/12/21 11:56:33;;;;;;;3.05;1.40;;;9.10;99.90;;;;;;5117060;27;20223;-77
2020/12/21 11:59:00;;;;;;;4.55;1.83;;;9.00;99.90;;;;;;5115569;27;20212;-76
2020/12/21 12:01:26;;;;;;;6.20;2.05;;;9.10;99.90;;;;;;5114346;28;20208;-76
2020/12/21 12:03:52;;;;;;;5.35;1.70;;;9.20;99.90;;;;;;5118491;27;20249;-79
2020/12/21 12:06:24;;;;;;;9.23;2.58;;;9.20;99.90;;;;;;5146848;27;20211;-86
2020/12/21 12:08:53;;;;;;;4.85;2.60;;;9.20;99.90;;;;;;5126815;27;20211;-81
2020/12/21 12:11:22;;;;;;;4.80;2.03;;;9.30;99.90;;;;;;5126630;27;20758;-82
2020/12/21 12:13:49;;;;;;;4.63;2.13;;;9.20;99.90;;;;;;5135313;27;20446;-83
2020/12/21 12:16:20;;;;;;;4.07;1.92;;;9.40;99.90;;;;;;5120534;27;20265;-83
2020/12/21 12:18:46;;;;;;;6.88;2.65;;;9.30;99.90;;;;;;5118039;27;20252;-82
2020/12/21 12:21:12;;;;;;;2.22;1.60;;;9.30;99.90;;;;;;5123954;27;20212;-82
2020/12/21 12:23:39;;;;;;;9.25;2.80;;;9.30;99.90;;;;;;5144720;27;20196;-83
2020/12/21 12:26:06;;;;;;;4.05;2.22;;;9.30;99.90;;;;;;5114833;28;20219;-82
2020/12/21 12:28:32;;;;;;;1.95;1.40;;;9.30;99.90;;;;;;5115819;27;20193;-82
2020/12/21 12:30:58;;;;;;;3.15;2.10;;;9.30;99.90;;;;;;5114246;28;20204;-82
2020/12/21 12:33:24;;;;;;;5.03;2.60;;;9.30;99.90;;;;;;5114324;28;20200;-82
2020/12/21 12:35:51;;;;;;;5.20;1.80;;;9.30;99.90;;;;;;5113976;28;20212;-82
2020/12/21 12:38:17;;;;;;;4.03;2.03;;;9.30;99.90;;;;;;5119104;27;20196;-82
2020/12/21 12:40:43;;;;;;;4.55;2.25;;;9.30;99.90;;;;;;5125742;27;20234;-82
2020/12/21 12:43:10;;;;;;;2.05;1.60;;;9.40;99.90;;;;;;5134040;27;20196;-82
2020/12/21 12:45:36;;;;;;;9.90;2.08;;;9.30;99.90;;;;;;5121684;27;20204;-80
2020/12/21 12:48:03;;;;;;;5.32;2.20;;;9.30;99.90;;;;;;5119084;27;20203;-79
2020/12/21 12:50:29;;;;;;;5.95;2.53;;;9.50;99.90;;;;;;5114304;27;20219;-80
2020/12/21 12:52:55;;;;;;;2.42;1.92;;;9.50;99.90;;;;;;5125410;27;20205;-79
2020/12/21 12:55:21;;;;;;;4.97;2.38;;;9.50;99.90;;;;;;5120290;27;20891;-79